Hesper, Montana
Current Conditions -  °F | °C
As of 5:53 PM on Wednesday 26 Nov 2014 (Local Time) from KBIL Reporting Station
Broken Clouds Broken Clouds  
Wind Chill: 29°   Ceiling: 4000
Heat Index: 29°   Visibility: 9mi
Dew Point: 27°   Wind: 3mph
Humidity: 92%   Direction: 150°SSE
Pressure: 30.17"   Gusts: NA
Location:  45.7752°N, 108.58°W
Report Text: KBIL 270053Z 15003KT 9SM SCT006 BKN040 BKN075 M02/M03 A3017 RMK AO2 SNB40E50 SLP250 P0000 T10171028 $
Loading
Personal Weather Stations






























Interactive Weather Map New forecast layout! Learn more

10-Day Weather Forecast

Advertisements
Track Severe Weather on mobile